ENHN weather

Elverum Starmoen Airport
Hedmark, Norway

Public forecast

Using degrees Celsius for public forecast. Weather courtesy of forecast.io.

Closest aviation weather report (METAR) to Elverum Starmoen Airport

Closest report is Oslo Gardermoen Airport, 44.5 nm (82.5 km) SSW. Retrieved 2019/10/24 03:20 UTC (36 minutes ago):

ENGM 240320Z 14004KT CAVOK 06/04 Q1008

Closest aviation forecast (TAF) to Elverum Starmoen Airport

Closest forecast is Oslo Gardermoen Airport, 44.5 nm (82.5 km) SSW. Retrieved 2019-10-24 00:00 UTC (4 hours ago):

TAF ENGM 232300Z 2400/2424 18008KT 9999 FEW010 BKN100 PROB40 2400/2406 BKN010 BECMG 2406/2408 4000 BR BKN005 TEMPO 2408/2412 6000 RADZ BKN010 PROB40 2411/2424 1500 DZRA BR BKN002